createdAt,value
2016-11-26T00:00:36.179Z,0.05
2016-11-26T00:01:36.264Z,0.03
2016-11-26T00:02:36.170Z,0.09
2016-11-26T00:03:36.115Z,0.02
2016-11-26T00:04:36.169Z,-0.09
2016-11-26T00:05:36.182Z,0.02
2016-11-26T00:06:36.121Z,0.06
2016-11-26T00:07:36.107Z,-0.02
2016-11-26T00:08:36.194Z,0.21
2016-11-26T00:09:36.379Z,0.37
2016-11-26T00:10:36.139Z,0.21
2016-11-26T00:11:36.201Z,0.2
2016-11-26T00:12:36.135Z,0.08
2016-11-26T00:13:36.126Z,0.05
2016-11-26T00:14:36.131Z,0.17
2016-11-26T00:15:36.203Z,0.05
2016-11-26T00:16:36.243Z,0.01
2016-11-26T00:17:36.226Z,-0.02
2016-11-26T00:18:36.210Z,-0.12
2016-11-26T00:19:36.233Z,-0.01
2016-11-26T00:20:36.257Z,0.01
2016-11-26T00:21:36.302Z,0.09
2016-11-26T00:22:36.234Z,0.1
2016-11-26T00:23:36.231Z,-0.05
2016-11-26T00:24:36.245Z,-0.13
2016-11-26T00:25:36.367Z,0.06
2016-11-26T00:26:36.150Z,0.06
2016-11-26T00:27:36.317Z,0.02
2016-11-26T00:28:36.315Z,0.05
2016-11-26T00:29:36.318Z,0.03
2016-11-26T00:30:36.249Z,0.13
2016-11-26T00:31:36.353Z,0.03
2016-11-26T00:32:36.273Z,0.01
2016-11-26T00:33:36.265Z,0.03
2016-11-26T00:34:36.272Z,-0.04
2016-11-26T00:35:36.252Z,-0.09
2016-11-26T00:36:36.219Z,-0.09
2016-11-26T00:37:36.289Z,-0.27
2016-11-26T00:38:36.203Z,-0.15
2016-11-26T00:39:36.282Z,-0.15
2016-11-26T00:40:36.279Z,-0.2
2016-11-26T00:41:36.310Z,-0.09
2016-11-26T00:42:36.272Z,-0.19
2016-11-26T00:43:36.279Z,-0.34
2016-11-26T00:44:36.291Z,-0.31
2016-11-26T00:45:36.224Z,-0.28
2016-11-26T00:46:36.293Z,-0.27
2016-11-26T00:47:36.402Z,-0.36
2016-11-26T00:48:36.311Z,-0.27
2016-11-26T00:49:36.298Z,-0.22
2016-11-26T00:50:36.228Z,-0.2
2016-11-26T00:51:36.381Z,-0.16
2016-11-26T00:52:36.337Z,-0.16
2016-11-26T00:53:36.387Z,-0.15
2016-11-26T00:54:36.237Z,-0.2
2016-11-26T00:55:36.303Z,-0.25
2016-11-26T00:56:36.394Z,0.16
2016-11-26T00:57:36.277Z,0.03
2016-11-26T00:58:36.408Z,-0.04
2016-11-26T00:59:36.346Z,-0.04
2016-11-26T01:00:36.352Z,-0.19
2016-11-26T01:01:36.376Z,-0.07
2016-11-26T01:02:36.417Z,0.02
2016-11-26T01:03:36.410Z,-0.09
2016-11-26T01:04:36.416Z,-0.07
2016-11-26T01:05:36.289Z,0.05
2016-11-26T01:06:36.286Z,-0.07
2016-11-26T01:07:36.358Z,-0.13
2016-11-26T01:08:36.389Z,-0.1
2016-11-26T01:09:36.352Z,0.06
2016-11-26T01:10:36.378Z,-0.09
2016-11-26T01:11:36.366Z,-0.1
2016-11-26T01:12:36.369Z,-0.02
2016-11-26T01:13:36.399Z,-0.04
2016-11-26T01:14:36.307Z,-0.05
2016-11-26T01:15:36.368Z,-0.12
2016-11-26T01:16:36.298Z,-0.23
2016-11-26T01:17:36.393Z,-0.28
2016-11-26T01:18:36.458Z,-0.31
2016-11-26T01:19:36.504Z,-0.33
2016-11-26T01:20:36.356Z,-0.45
2016-11-26T01:21:36.377Z,-0.52
2016-11-26T01:22:36.338Z,-0.52
2016-11-26T01:23:36.395Z,-0.62
2016-11-26T01:24:36.414Z,-0.72
2016-11-26T01:25:36.305Z,-0.72
2016-11-26T01:26:36.320Z,-0.61
2016-11-26T01:27:36.411Z,-0.7
2016-11-26T01:28:36.404Z,-0.66
2016-11-26T01:29:36.349Z,-0.74
2016-11-26T01:30:36.412Z,-0.67
2016-11-26T01:31:36.485Z,-0.7
2016-11-26T01:32:36.495Z,-0.61
2016-11-26T01:33:36.329Z,-0.4
2016-11-26T01:34:36.436Z,-0.46
2016-11-26T01:35:36.412Z,-0.46
2016-11-26T01:36:36.428Z,-0.45
2016-11-26T01:37:36.425Z,-0.38
2016-11-26T01:38:36.358Z,-0.41
2016-11-26T01:39:36.420Z,-0.48
2016-11-26T01:40:36.473Z,-0.51
2016-11-26T01:41:36.527Z,-0.56
2016-11-26T01:42:36.433Z,-0.59
2016-11-26T01:43:36.509Z,-0.73
2016-11-26T01:44:36.432Z,-0.74
2016-11-26T01:45:36.462Z,-0.92
2016-11-26T01:46:36.465Z,-0.73
2016-11-26T01:47:36.450Z,-0.76
2016-11-26T01:48:36.457Z,-0.73
2016-11-26T01:49:36.448Z,-0.76
2016-11-26T01:50:36.452Z,-0.67
2016-11-26T01:51:36.455Z,-0.66
2016-11-26T01:52:36.384Z,-0.67
2016-11-26T01:53:36.464Z,-0.62
2016-11-26T01:54:36.398Z,-0.66
2016-11-26T01:55:36.491Z,-0.66
2016-11-26T01:56:36.590Z,-0.69
2016-11-26T01:57:36.420Z,-0.72
2016-11-26T01:58:36.606Z,-0.67
2016-11-26T01:59:36.514Z,-0.48
2016-11-26T02:00:36.558Z,-0.41
2016-11-26T02:01:36.520Z,-0.38
2016-11-26T02:02:36.497Z,-0.4
2016-11-26T02:03:36.514Z,-0.46
2016-11-26T02:04:36.510Z,-0.48
2016-11-26T02:05:36.423Z,-0.49
2016-11-26T02:06:36.513Z,-0.49
2016-11-26T02:07:36.498Z,-0.51
2016-11-26T02:08:36.425Z,-0.48
2016-11-26T02:09:36.538Z,-0.43
2016-11-26T02:10:36.612Z,-0.49
2016-11-26T02:11:36.512Z,-0.41
2016-11-26T02:12:36.560Z,-0.45
2016-11-26T02:13:36.546Z,-0.46
2016-11-26T02:14:36.516Z,-0.41
2016-11-26T02:15:36.459Z,-0.43
2016-11-26T02:16:36.443Z,-0.48
2016-11-26T02:17:36.557Z,-0.54
2016-11-26T02:18:36.539Z,-0.59
2016-11-26T02:19:36.473Z,-0.64
2016-11-26T02:20:36.543Z,-0.72
2016-11-26T02:21:36.535Z,-0.59
2016-11-26T02:22:36.681Z,-0.56
2016-11-26T02:23:36.682Z,-0.31
2016-11-26T02:24:36.551Z,-0.46
2016-11-26T02:25:36.548Z,-0.41
2016-11-26T02:26:36.636Z,-0.55
2016-11-26T02:27:36.495Z,-0.58
2016-11-26T02:28:36.632Z,-0.54
2016-11-26T02:29:36.646Z,-0.61
2016-11-26T02:30:36.578Z,-0.76
2016-11-26T02:31:36.487Z,-0.69
2016-11-26T02:32:36.504Z,-0.73
2016-11-26T02:33:36.822Z,-0.77
2016-11-26T02:34:36.572Z,-0.8
2016-11-26T02:35:36.520Z,-0.89
2016-11-26T02:36:36.586Z,-0.91
2016-11-26T02:37:36.595Z,-0.96
2016-11-26T02:38:36.595Z,-1.03
2016-11-26T02:39:36.502Z,-0.96
2016-11-26T02:40:36.593Z,-0.93
2016-11-26T02:41:36.589Z,-1.01
2016-11-26T02:42:36.523Z,-0.93
2016-11-26T02:43:36.590Z,-1.01
2016-11-26T02:44:36.567Z,-0.87
2016-11-26T02:45:36.596Z,-0.92
2016-11-26T02:46:36.537Z,-0.74
2016-11-26T02:47:36.610Z,-0.74
2016-11-26T02:48:36.695Z,-0.77
2016-11-26T02:49:36.811Z,-0.74
2016-11-26T02:50:36.701Z,-0.66
2016-11-26T02:51:36.706Z,-0.72
2016-11-26T02:52:36.629Z,-0.84
2016-11-26T02:53:36.568Z,-0.74
2016-11-26T02:54:36.554Z,-0.73
2016-11-26T02:55:36.618Z,-0.77
2016-11-26T02:56:36.577Z,-0.72
2016-11-26T02:57:36.553Z,-0.74
2016-11-26T02:58:36.680Z,-0.59
2016-11-26T02:59:36.736Z,-0.69
2016-11-26T03:00:36.586Z,-0.69
2016-11-26T03:01:36.739Z,-0.74
2016-11-26T03:02:36.683Z,-0.59
2016-11-26T03:03:36.576Z,-0.59
2016-11-26T03:04:36.739Z,-0.49
2016-11-26T03:05:37.757Z,-0.54
2016-11-26T03:06:36.673Z,-0.61
2016-11-26T03:07:36.665Z,-0.56
2016-11-26T03:08:36.603Z,-0.58
2016-11-26T03:09:36.686Z,-0.52
2016-11-26T03:10:36.750Z,-0.55
2016-11-26T03:11:36.668Z,-0.51
2016-11-26T03:12:36.687Z,-0.51
2016-11-26T03:13:36.701Z,-0.59
2016-11-26T03:14:36.612Z,-0.55
2016-11-26T03:15:36.695Z,-0.55
2016-11-26T03:16:36.795Z,-0.7
2016-11-26T03:17:36.611Z,-0.52
2016-11-26T03:18:36.784Z,-0.54
2016-11-26T03:19:36.706Z,-0.52
2016-11-26T03:20:36.785Z,-0.62
2016-11-26T03:21:36.731Z,-0.56
2016-11-26T03:22:36.624Z,-0.56
2016-11-26T03:23:36.633Z,-0.56
2016-11-26T03:24:36.788Z,-0.58
2016-11-26T03:25:36.712Z,-0.55
2016-11-26T03:26:36.643Z,-0.55
2016-11-26T03:27:36.714Z,-0.56
2016-11-26T03:28:36.686Z,-0.51
2016-11-26T03:29:36.804Z,-0.61
2016-11-26T03:30:36.736Z,-0.59
2016-11-26T03:31:36.806Z,-0.59
2016-11-26T03:32:36.825Z,-0.67
2016-11-26T03:33:36.748Z,-0.73
2016-11-26T03:34:36.746Z,-0.79
2016-11-26T03:35:36.689Z,-0.99
2016-11-26T03:36:36.760Z,-1.1
2016-11-26T03:37:36.731Z,-1.14
2016-11-26T03:38:36.702Z,-1.1
2016-11-26T03:39:36.759Z,-1.04
2016-11-26T03:40:36.831Z,-1.07
2016-11-26T03:41:36.688Z,-1.09
2016-11-26T03:42:36.678Z,-0.84
2016-11-26T03:43:36.778Z,-0.85
2016-11-26T03:44:36.774Z,-0.89
2016-11-26T03:45:36.786Z,-0.89
2016-11-26T03:46:36.774Z,-0.93
2016-11-26T03:47:36.782Z,-0.92
2016-11-26T03:48:36.884Z,-0.96
2016-11-26T03:49:36.785Z,-0.95
2016-11-26T03:50:36.770Z,-1.01
2016-11-26T03:51:36.802Z,-1.01
2016-11-26T03:52:36.791Z,-0.95
2016-11-26T03:53:36.755Z,-1.09
2016-11-26T03:54:36.716Z,-1.25
2016-11-26T03:55:36.885Z,-1.21
2016-11-26T03:56:36.716Z,-1.17
2016-11-26T03:57:36.898Z,-1.27
2016-11-26T03:58:36.905Z,-1.32
2016-11-26T03:59:36.722Z,-1.25
2016-11-26T04:00:36.813Z,-1.21
2016-11-26T04:01:36.908Z,-1.14
2016-11-26T04:02:36.749Z,-1.11
2016-11-26T04:03:36.777Z,-1.1
2016-11-26T04:04:36.845Z,-0.93
2016-11-26T04:05:36.742Z,-0.98
2016-11-26T04:06:36.864Z,-0.95
2016-11-26T04:07:36.829Z,-0.99
2016-11-26T04:08:36.835Z,-0.98
2016-11-26T04:09:36.875Z,-0.99
2016-11-26T04:10:36.848Z,-1.13
2016-11-26T04:11:36.922Z,-1.03
2016-11-26T04:12:36.852Z,-0.98
2016-11-26T04:13:36.926Z,-0.95
2016-11-26T04:14:36.787Z,-0.95
2016-11-26T04:15:36.789Z,-1.06
2016-11-26T04:16:36.869Z,-1.07
2016-11-26T04:17:36.967Z,-1.13
2016-11-26T04:18:36.941Z,-1.19
2016-11-26T04:19:36.803Z,-1.25
2016-11-26T04:20:36.820Z,-1.19
2016-11-26T04:21:36.964Z,-1.32
2016-11-26T04:22:36.880Z,-1.21
2016-11-26T04:23:36.959Z,-1.37
2016-11-26T04:24:36.951Z,-1.31
2016-11-26T04:25:37.816Z,-1.28
2016-11-26T04:26:36.950Z,-1.27
2016-11-26T04:27:36.978Z,-1.35
2016-11-26T04:28:36.908Z,-1.32
2016-11-26T04:29:36.988Z,-1.3
2016-11-26T04:30:36.911Z,-1.3
2016-11-26T04:31:36.948Z,-1.27
2016-11-26T04:32:36.862Z,-1.38
2016-11-26T04:33:37.008Z,-1.35
2016-11-26T04:34:36.909Z,-1.28
2016-11-26T04:35:36.920Z,-1.13
2016-11-26T04:36:37.034Z,-1.16
2016-11-26T04:37:36.912Z,-1.16
2016-11-26T04:38:36.904Z,-1.13
2016-11-26T04:39:36.914Z,-1.04
2016-11-26T04:40:36.919Z,-1.01
2016-11-26T04:41:37.028Z,-0.95
2016-11-26T04:42:36.933Z,-0.98
2016-11-26T04:43:36.926Z,-1.01
2016-11-26T04:44:36.926Z,-0.99
2016-11-26T04:45:36.925Z,-1.06
2016-11-26T04:46:37.001Z,-1.24
2016-11-26T04:47:36.921Z,-1.16
2016-11-26T04:48:36.945Z,-1.25
2016-11-26T04:49:36.958Z,-1.21
2016-11-26T04:50:36.941Z,-1.3
2016-11-26T04:51:36.972Z,-1.37
2016-11-26T04:52:36.967Z,-1.4
2016-11-26T04:53:36.907Z,-1.35
2016-11-26T04:54:36.974Z,-1.43
2016-11-26T04:55:36.894Z,-1.49
2016-11-26T04:56:37.036Z,-1.46
2016-11-26T04:57:37.000Z,-1.52
2016-11-26T04:58:36.889Z,-1.34
2016-11-26T04:59:37.054Z,-1.42
2016-11-26T05:00:37.139Z,-1.37
2016-11-26T05:01:36.911Z,-1.21
2016-11-26T05:02:37.065Z,-1.27
2016-11-26T05:03:37.006Z,-1.17
2016-11-26T05:04:36.971Z,-1.22
2016-11-26T05:05:36.907Z,-1.22
2016-11-26T05:06:36.990Z,-1.28
2016-11-26T05:07:36.923Z,-1.32
2016-11-26T05:08:37.103Z,-1.42
2016-11-26T05:09:36.990Z,-1.42
2016-11-26T05:10:36.995Z,-1.5
2016-11-26T05:11:37.081Z,-1.55
2016-11-26T05:12:36.994Z,-1.52
2016-11-26T05:13:37.136Z,-1.58
2016-11-26T05:14:37.013Z,-1.71
2016-11-26T05:15:36.995Z,-1.66
2016-11-26T05:16:37.037Z,-1.58
2016-11-26T05:17:37.109Z,-1.66
2016-11-26T05:18:37.104Z,-1.58
2016-11-26T05:19:37.101Z,-1.61
2016-11-26T05:20:36.964Z,-1.61
2016-11-26T05:21:36.956Z,-1.48
2016-11-26T05:22:37.166Z,-1.46
2016-11-26T05:23:36.962Z,-1.52
2016-11-26T05:24:37.131Z,-1.45
2016-11-26T05:25:37.125Z,-1.48
2016-11-26T05:26:37.051Z,-1.49
2016-11-26T05:27:37.061Z,-1.53
2016-11-26T05:28:37.125Z,-1.48
2016-11-26T05:29:37.101Z,-1.5
2016-11-26T05:30:37.142Z,-1.48
2016-11-26T05:31:37.104Z,-1.5
2016-11-26T05:32:36.961Z,-1.55
2016-11-26T05:33:37.065Z,-1.58
2016-11-26T05:34:37.016Z,-1.64
2016-11-26T05:35:37.084Z,-1.43
2016-11-26T05:36:37.010Z,-1.38
2016-11-26T05:37:37.078Z,-1.34
2016-11-26T05:38:37.065Z,-1.27
2016-11-26T05:39:37.159Z,-1.24
2016-11-26T05:40:37.112Z,-1.24
2016-11-26T05:41:37.150Z,-1.28
2016-11-26T05:42:37.004Z,-1.24
2016-11-26T05:43:37.181Z,-1.21
2016-11-26T05:44:37.096Z,-1.22
2016-11-26T05:45:37.307Z,-1.13
2016-11-26T05:46:37.098Z,-1.19
2016-11-26T05:47:37.089Z,-1.27
2016-11-26T05:48:37.106Z,-1.24
2016-11-26T05:49:37.034Z,-1.16
2016-11-26T05:50:37.201Z,-1.22
2016-11-26T05:51:37.047Z,-1.21
2016-11-26T05:52:37.103Z,-1.31
2016-11-26T05:53:37.129Z,-1.3
2016-11-26T05:54:37.114Z,-1.28
2016-11-26T05:55:37.243Z,-1.3
2016-11-26T05:56:37.090Z,-1.35
2016-11-26T05:57:37.125Z,-1.31
2016-11-26T05:58:37.136Z,-1.24
2016-11-26T05:59:37.223Z,-1.27
2016-11-26T06:00:37.094Z,-1.22
2016-11-26T06:01:37.241Z,-1.21
2016-11-26T06:02:37.266Z,-1.21
2016-11-26T06:03:37.145Z,-1.34
2016-11-26T06:04:37.200Z,-1.32
2016-11-26T06:05:37.082Z,-1.32
2016-11-26T06:06:37.312Z,-1.38
2016-11-26T06:07:37.247Z,-1.3
2016-11-26T06:08:37.075Z,-1.24
2016-11-26T06:09:37.155Z,-1.21
2016-11-26T06:10:37.152Z,-1.24
2016-11-26T06:11:37.166Z,-1.25
2016-11-26T06:12:37.161Z,-1.27
2016-11-26T06:13:37.086Z,-1.27
2016-11-26T06:14:37.097Z,-1.16
2016-11-26T06:15:37.261Z,-1.27
2016-11-26T06:16:37.257Z,-1.17
2016-11-26T06:17:37.205Z,-1.27
2016-11-26T06:18:37.116Z,-1.16
2016-11-26T06:19:37.174Z,-1.28
2016-11-26T06:20:37.195Z,-1.14
2016-11-26T06:21:37.205Z,-1.27
2016-11-26T06:22:37.271Z,-1.24
2016-11-26T06:23:37.216Z,-1.16
2016-11-26T06:24:37.138Z,-1.24
2016-11-26T06:25:37.122Z,-1.24
2016-11-26T06:26:37.306Z,-1.31
2016-11-26T06:27:37.213Z,-1.27
2016-11-26T06:28:37.321Z,-1.32
2016-11-26T06:29:37.203Z,-1.3
2016-11-26T06:30:37.224Z,-1.14
2016-11-26T06:31:37.309Z,-1.22
2016-11-26T06:32:37.313Z,-1.24
2016-11-26T06:33:37.279Z,-1.21
2016-11-26T06:34:37.296Z,-1.31
2016-11-26T06:35:37.238Z,-1.28
2016-11-26T06:36:37.226Z,-1.25
2016-11-26T06:37:37.332Z,-1.32
2016-11-26T06:38:37.233Z,-1.4
2016-11-26T06:39:37.225Z,-1.3
2016-11-26T06:40:37.260Z,-1.35
2016-11-26T06:41:37.247Z,-1.46
2016-11-26T06:42:37.258Z,-1.38
2016-11-26T06:43:37.250Z,-1.35
2016-11-26T06:44:37.368Z,-1.42
2016-11-26T06:45:37.329Z,-1.38
2016-11-26T06:46:37.372Z,-1.4
2016-11-26T06:47:37.281Z,-1.42
2016-11-26T06:48:37.195Z,-1.37
2016-11-26T06:49:37.373Z,-1.43
2016-11-26T06:50:37.295Z,-1.45
2016-11-26T06:51:37.267Z,-1.43
2016-11-26T06:52:37.263Z,-1.45
2016-11-26T06:53:37.268Z,-1.46
2016-11-26T06:54:37.201Z,-1.53
2016-11-26T06:55:37.280Z,-1.45
2016-11-26T06:56:37.214Z,-1.45
2016-11-26T06:57:37.265Z,-1.55
2016-11-26T06:58:37.267Z,-1.52
2016-11-26T06:59:37.318Z,-1.52
2016-11-26T07:00:37.312Z,-1.52
2016-11-26T07:01:37.385Z,-1.64
2016-11-26T07:02:37.217Z,-1.71
2016-11-26T07:03:37.242Z,-1.64
2016-11-26T07:04:37.313Z,-1.68
2016-11-26T07:05:37.410Z,-1.74
2016-11-26T07:06:37.250Z,-1.7
2016-11-26T07:07:37.267Z,-1.68
2016-11-26T07:08:37.254Z,-1.7
2016-11-26T07:09:37.324Z,-1.74
2016-11-26T07:10:37.322Z,-1.71
2016-11-26T07:11:37.404Z,-1.74
2016-11-26T07:12:37.247Z,-1.76
2016-11-26T07:13:37.406Z,-1.79
2016-11-26T07:14:37.344Z,-1.74
2016-11-26T07:15:37.346Z,-1.74
2016-11-26T07:16:37.278Z,-1.71
2016-11-26T07:17:37.436Z,-1.7
2016-11-26T07:18:37.337Z,-1.82
2016-11-26T07:19:37.338Z,-1.73
2016-11-26T07:20:37.523Z,-1.82
2016-11-26T07:21:37.337Z,-1.76
2016-11-26T07:22:37.348Z,-1.74
2016-11-26T07:23:37.297Z,-1.81
2016-11-26T07:24:37.282Z,-1.81
2016-11-26T07:25:37.300Z,-1.7
2016-11-26T07:26:37.390Z,-1.74
2016-11-26T07:27:37.426Z,-1.71
2016-11-26T07:28:37.504Z,-1.76
2016-11-26T07:29:37.442Z,-1.78
2016-11-26T07:30:37.416Z,-1.78
2016-11-26T07:31:37.387Z,-1.63
2016-11-26T07:32:37.325Z,-1.82
2016-11-26T07:33:37.451Z,-1.85
2016-11-26T07:34:37.497Z,-1.73
2016-11-26T07:35:37.428Z,-1.84
2016-11-26T07:36:37.388Z,-1.76
2016-11-26T07:37:37.514Z,-1.71
2016-11-26T07:38:37.393Z,-1.79
2016-11-26T07:39:37.360Z,-1.74
2016-11-26T07:40:37.462Z,-1.7
2016-11-26T07:41:37.397Z,-1.7
2016-11-26T07:42:37.502Z,-1.66
2016-11-26T07:43:37.415Z,-1.67
2016-11-26T07:44:37.406Z,-1.7
2016-11-26T07:45:37.427Z,-1.64
2016-11-26T07:46:37.503Z,-1.68
2016-11-26T07:47:37.440Z,-1.6
2016-11-26T07:48:37.536Z,-1.61
2016-11-26T07:49:37.346Z,-1.63
2016-11-26T07:50:37.517Z,-1.46
2016-11-26T07:51:37.446Z,-1.5
2016-11-26T07:52:37.493Z,-1.5
2016-11-26T07:53:37.469Z,-1.49
2016-11-26T07:54:37.471Z,-1.52
2016-11-26T07:55:37.366Z,-1.4
2016-11-26T07:56:37.462Z,-1.5
2016-11-26T07:57:37.363Z,-1.56
2016-11-26T07:58:37.451Z,-1.58
2016-11-26T07:59:37.459Z,-1.61
2016-11-26T08:00:37.452Z,-1.61
2016-11-26T08:01:37.547Z,-1.6
2016-11-26T08:02:37.471Z,-1.5
2016-11-26T08:03:37.464Z,-1.53
2016-11-26T08:04:37.560Z,-1.55
2016-11-26T08:05:37.553Z,-1.43
2016-11-26T08:06:37.434Z,-1.42
2016-11-26T08:07:37.487Z,-1.38
2016-11-26T08:08:37.396Z,-1.38
2016-11-26T08:09:37.499Z,-1.35
2016-11-26T08:10:37.416Z,-1.25
2016-11-26T08:11:37.571Z,-1.25
2016-11-26T08:12:37.495Z,-1.14
2016-11-26T08:13:37.582Z,-1.13
2016-11-26T08:14:37.508Z,-1.16
2016-11-26T08:15:37.481Z,-1.16
2016-11-26T08:16:37.459Z,-1.22
2016-11-26T08:17:37.518Z,-1.22
2016-11-26T08:18:37.434Z,-1.21
2016-11-26T08:19:37.501Z,-1.16
2016-11-26T08:20:37.567Z,-1.11
2016-11-26T08:21:37.505Z,-0.96
2016-11-26T08:22:37.445Z,-1.03
2016-11-26T08:23:37.517Z,-0.95
2016-11-26T08:24:37.522Z,-0.82
2016-11-26T08:25:37.620Z,-0.82
2016-11-26T08:26:37.457Z,-0.74
2016-11-26T08:27:37.567Z,-0.7
2016-11-26T08:28:37.527Z,-0.67
2016-11-26T08:29:37.616Z,-0.66
2016-11-26T08:30:37.462Z,-0.59
2016-11-26T08:31:37.478Z,-0.59
2016-11-26T08:32:37.544Z,-0.48
2016-11-26T08:33:37.551Z,-0.38
2016-11-26T08:34:37.546Z,-0.37
2016-11-26T08:35:37.566Z,-0.19
2016-11-26T08:36:37.629Z,-0.34
2016-11-26T08:37:37.627Z,-0.22
2016-11-26T08:38:37.501Z,-0.15
2016-11-26T08:39:37.564Z,-0.18
2016-11-26T08:40:37.574Z,-0.19
2016-11-26T08:41:37.671Z,-0.33
2016-11-26T08:42:37.566Z,-0.38
2016-11-26T08:43:37.585Z,-0.34
2016-11-26T08:44:37.504Z,-0.3
2016-11-26T08:45:37.592Z,-0.22
2016-11-26T08:46:37.598Z,-0.15
2016-11-26T08:47:37.579Z,-0.16
2016-11-26T08:48:37.646Z,-0.13
2016-11-26T08:49:37.585Z,0.05
2016-11-26T08:50:37.517Z,0.13
2016-11-26T09:08:37.583Z,1.56
2016-11-26T09:09:37.642Z,1.56
2016-11-26T09:10:37.630Z,1.65
2016-11-26T09:11:37.645Z,1.51
2016-11-26T09:12:37.660Z,1.54
2016-11-26T09:13:37.577Z,1.53
2016-11-26T09:14:37.708Z,1.47
2016-11-26T09:15:37.655Z,1.5
2016-11-26T09:16:37.676Z,1.47
2016-11-26T09:17:37.690Z,1.51
2016-11-26T09:18:37.591Z,1.51
2016-11-26T09:19:37.648Z,1.46
2016-11-26T09:20:37.691Z,1.42
2016-11-26T09:21:37.587Z,1.38
2016-11-26T09:22:37.751Z,1.11
2016-11-26T09:23:37.671Z,0.93
2016-11-26T09:24:37.751Z,0.97
2016-11-26T09:25:37.609Z,0.93
2016-11-26T09:26:37.637Z,0.99
2016-11-26T09:27:37.724Z,1.1
2016-11-26T09:42:39.293Z,1.87
2016-11-26T09:43:37.658Z,1.98
2016-11-26T09:44:37.800Z,1.97
2016-11-26T09:45:37.741Z,2.09
2016-11-26T09:46:37.725Z,2.12
2016-11-26T09:47:37.822Z,2.29
2016-11-26T09:48:37.744Z,2.27
2016-11-26T09:49:37.772Z,2.11
2016-11-26T09:50:37.835Z,2.08
2016-11-26T09:51:37.810Z,2.15
2016-11-26T09:52:37.752Z,2.12
2016-11-26T09:53:37.700Z,2.22
2016-11-26T09:54:37.712Z,2.31
2016-11-26T09:55:37.692Z,2.48
2016-11-26T09:56:37.707Z,2.4
2016-11-26T09:57:37.771Z,2.36
2016-11-26T09:58:37.799Z,2.44
2016-11-26T09:59:37.780Z,2.63
2016-11-26T10:00:37.855Z,2.77
2016-11-26T10:01:37.776Z,2.87
2016-11-26T10:02:38.807Z,2.58
2016-11-26T10:03:37.789Z,2.84
2016-11-26T10:04:37.790Z,2.77
2016-11-26T10:05:37.719Z,2.7
2016-11-26T10:06:37.802Z,2.9
2016-11-26T10:07:37.807Z,3.2
2016-11-26T10:08:37.815Z,3.26
2016-11-26T10:09:37.828Z,3.54
2016-11-26T10:10:37.788Z,3.53
2016-11-26T10:11:37.801Z,3.51
2016-11-26T10:12:37.821Z,3.76
2016-11-26T10:13:37.809Z,3.89
2016-11-26T10:14:37.832Z,4.07
2016-11-26T10:15:37.748Z,4.07
2016-11-26T10:16:37.896Z,4.08
2016-11-26T10:17:37.768Z,3.69
2016-11-26T10:18:37.750Z,3.32
2016-11-26T10:19:37.756Z,3.26
2016-11-26T10:20:37.831Z,3.3
2016-11-26T10:21:37.865Z,3.48
2016-11-26T10:22:37.906Z,3.78
2016-11-26T10:23:37.860Z,3.74
2016-11-26T10:24:37.842Z,3.82
2016-11-26T10:25:37.780Z,3.93
2016-11-26T10:26:37.892Z,4.2
2016-11-26T10:27:37.850Z,4.11
2016-11-26T10:28:37.789Z,3.75
2016-11-26T10:29:37.871Z,3.45
2016-11-26T10:30:37.933Z,3.39
2016-11-26T10:31:37.801Z,3.67
2016-11-26T10:32:37.863Z,3.9
2016-11-26T10:33:37.859Z,3.78
2016-11-26T10:34:37.982Z,3.63
2016-11-26T10:35:37.879Z,3.61
2016-11-26T10:36:37.954Z,3.81
2016-11-26T10:37:37.814Z,4.22
2016-11-26T10:38:37.908Z,4.21
2016-11-26T10:39:37.809Z,4.2
2016-11-26T10:40:37.983Z,4.03
2016-11-26T10:41:37.979Z,4.11
2016-11-26T10:42:37.915Z,4.07
2016-11-26T10:43:37.830Z,4.42
2016-11-26T10:44:38.007Z,4.18
2016-11-26T10:45:37.908Z,4.03
2016-11-26T10:46:37.902Z,3.94
2016-11-26T10:47:37.991Z,3.93
2016-11-26T10:48:37.946Z,4.07
2016-11-26T10:49:37.840Z,3.78
2016-11-26T10:50:37.934Z,3.93
2016-11-26T10:51:37.918Z,4.11
2016-11-26T10:52:37.930Z,4.32
2016-11-26T10:53:37.965Z,4.29
2016-11-26T10:54:37.854Z,4.28
2016-11-26T10:55:37.893Z,4.24
2016-11-26T10:56:37.968Z,4.28
2016-11-26T10:57:37.965Z,4.32
2016-11-26T10:58:37.971Z,4.29
2016-11-26T10:59:37.943Z,4.48
2016-11-26T11:00:38.027Z,4.48
2016-11-26T11:01:37.959Z,4.35
2016-11-26T11:02:37.961Z,4.24
2016-11-26T11:03:37.977Z,4.38
2016-11-26T11:04:37.957Z,4.39
2016-11-26T11:05:37.962Z,4.42
2016-11-26T11:06:37.883Z,4.04
2016-11-26T11:07:38.170Z,3.89
2016-11-26T11:08:37.983Z,3.93
2016-11-26T11:09:37.982Z,3.67
2016-11-26T11:10:39.164Z,3.23
2016-11-26T11:11:38.023Z,3.14
2016-11-26T11:12:37.918Z,3.03
2016-11-26T11:13:38.012Z,2.81
2016-11-26T11:14:38.021Z,2.6
2016-11-26T11:18:37.940Z,2.27
2016-11-26T11:19:37.930Z,2.4
2016-11-26T11:20:38.014Z,2.12
2016-11-26T11:21:38.093Z,1.72
2016-11-26T11:22:38.039Z,1.84
2016-11-26T11:23:38.134Z,1.9
2016-11-26T11:24:38.124Z,1.86
2016-11-26T11:25:38.106Z,1.83
2016-11-26T11:26:37.963Z,1.84
2016-11-26T11:27:37.968Z,1.89
2016-11-26T11:28:37.939Z,1.94
2016-11-26T11:29:38.015Z,1.97
2016-11-26T11:30:38.164Z,1.89
2016-11-26T11:31:37.973Z,2.01
2016-11-26T11:32:38.127Z,2.06
2016-11-26T11:33:38.050Z,2.18
2016-11-26T11:34:38.864Z,2.2
2016-11-26T11:35:38.079Z,2.26
2016-11-26T11:36:38.044Z,2.18
2016-11-26T11:37:38.218Z,2.23
2016-11-26T11:38:39.814Z,2.18
2016-11-26T11:39:38.140Z,2.23
2016-11-26T11:40:37.981Z,1.89
2016-11-26T11:41:38.004Z,1.87
2016-11-26T11:42:38.014Z,1.71
2016-11-26T11:43:38.156Z,1.54
2016-11-26T11:44:38.156Z,1.39
2016-11-26T11:45:38.146Z,1.29
2016-11-26T11:46:38.112Z,1.39
2016-11-26T11:47:38.099Z,1.5
2016-11-26T11:48:38.248Z,1.39
2016-11-26T11:49:38.079Z,1.24
2016-11-26T11:50:38.179Z,1.2
2016-11-26T11:51:38.150Z,1.28
2016-11-26T11:52:38.092Z,1.28
2016-11-26T11:53:38.160Z,1.39
2016-11-26T11:54:38.084Z,1.5
2016-11-26T11:55:38.021Z,1.48
2016-11-26T11:56:38.104Z,1.53
2016-11-26T11:57:38.085Z,1.44
2016-11-26T11:58:38.029Z,1.54
2016-11-26T11:59:38.197Z,1.42
2016-11-26T12:00:38.055Z,1.2
2016-11-26T12:01:38.121Z,1.08
2016-11-26T12:02:38.157Z,0.81
2016-11-26T12:03:38.125Z,0.74
2016-11-26T12:04:38.152Z,0.74
2016-11-26T12:05:38.139Z,0.84
2016-11-26T12:06:38.142Z,0.84
2016-11-26T12:07:38.233Z,0.81
2016-11-26T12:08:38.224Z,0.74
2016-11-26T12:09:38.136Z,0.6
2016-11-26T12:10:38.323Z,0.81
2016-11-26T12:11:38.062Z,0.61
2016-11-26T12:12:38.160Z,0.74
2016-11-26T12:13:38.085Z,0.75
2016-11-26T12:14:38.218Z,0.86
2016-11-26T12:15:38.157Z,0.86
2016-11-26T12:16:38.361Z,0.9
2016-11-26T12:17:38.442Z,0.96
2016-11-26T12:18:38.361Z,1.04
2016-11-26T12:19:38.519Z,1.03
2016-11-26T12:20:38.553Z,0.93
2016-11-26T12:21:38.480Z,0.86
2016-11-26T12:22:38.478Z,0.94
2016-11-26T12:23:38.388Z,0.96
2016-11-26T12:24:38.271Z,0.84
2016-11-26T12:25:38.517Z,0.81
2016-11-26T12:26:38.460Z,0.76
2016-11-26T12:27:38.423Z,0.66
2016-11-26T12:28:38.429Z,0.61
2016-11-26T12:29:38.289Z,0.6
2016-11-26T12:30:38.512Z,0.44
2016-11-26T12:31:38.491Z,0.39
2016-11-26T12:32:38.540Z,0.37
2016-11-26T12:33:38.362Z,0.32
2016-11-26T12:34:38.491Z,0.38
2016-11-26T12:35:38.471Z,0.37
2016-11-26T12:36:38.454Z,0.39
2016-11-26T12:37:38.427Z,0.42
2016-11-26T12:38:38.484Z,0.28
2016-11-26T12:39:38.477Z,0.38
2016-11-26T12:40:38.383Z,0.44
2016-11-26T12:41:38.577Z,0.37
2016-11-26T12:42:38.441Z,0.41
2016-11-26T12:43:38.450Z,0.58
2016-11-26T12:44:38.539Z,0.5
2016-11-26T12:45:38.595Z,0.57
2016-11-26T12:46:38.598Z,0.6
2016-11-26T12:47:38.615Z,0.63
2016-11-26T12:48:38.496Z,0.61
2016-11-26T12:49:38.601Z,0.66
2016-11-26T12:50:38.508Z,0.61
2016-11-26T12:51:38.546Z,0.72
2016-11-26T12:52:38.467Z,0.64
2016-11-26T12:53:38.437Z,0.48
2016-11-26T12:54:38.581Z,0.66
2016-11-26T12:55:39.122Z,0.58
2016-11-26T12:57:52.996Z,0.78
2016-11-26T12:58:58.983Z,0.75
2016-11-26T12:59:42.077Z,0.63
2016-11-26T13:00:40.958Z,0.63
2016-11-26T13:01:39.054Z,0.69
2016-11-26T13:03:04.590Z,0.75
2016-11-26T13:03:56.764Z,0.78
2016-11-26T13:05:00.139Z,0.72
2016-11-26T13:05:50.132Z,0.71
2016-11-26T13:06:38.585Z,0.78
2016-11-26T13:07:38.664Z,0.76
2016-11-26T13:08:39.429Z,0.57
2016-11-26T13:09:38.478Z,0.64
2016-11-26T13:10:39.312Z,0.67
2016-11-26T13:11:38.642Z,0.71
2016-11-26T13:12:38.644Z,0.76
2016-11-26T13:13:38.653Z,0.79
2016-11-26T13:14:38.744Z,0.79
2016-11-26T13:15:40.084Z,0.85
2016-11-26T13:16:40.354Z,0.93
2016-11-26T13:17:39.857Z,1.07
2016-11-26T13:18:38.708Z,1.02
2016-11-26T13:19:38.584Z,1.07
2016-11-26T13:20:38.702Z,1
2016-11-26T13:21:38.790Z,1.08
2016-11-26T13:22:38.934Z,1.2
2016-11-26T13:23:38.552Z,1.11
2016-11-26T13:24:38.618Z,1.04
2016-11-26T13:25:39.172Z,0.97
2016-11-26T13:26:38.579Z,1.08
2016-11-26T13:27:38.687Z,1.02
2016-11-26T13:28:38.529Z,1.07
2016-11-26T13:29:38.512Z,1.1
2016-11-26T13:30:38.547Z,1.15
2016-11-26T13:31:38.562Z,1.1
2016-11-26T13:32:38.487Z,1.2
2016-11-26T13:33:38.568Z,1.11
2016-11-26T13:34:38.552Z,1.21
2016-11-26T13:35:38.619Z,1.1
2016-11-26T13:36:38.555Z,1.22
2016-11-26T13:37:38.589Z,1.1
2016-11-26T13:38:38.755Z,1.04
2016-11-26T13:39:38.562Z,1.12